createdAt,value
2022-10-09T00:00:01.083Z,96730.38
2022-10-09T00:02:28.552Z,96746.34
2022-10-09T00:04:56.098Z,96740.47
2022-10-09T00:07:25.100Z,96745.91
2022-10-09T00:09:52.509Z,96745.72
2022-10-09T00:12:19.924Z,96739.63
2022-10-09T00:14:47.551Z,96740.31
2022-10-09T00:17:14.978Z,96732.06
2022-10-09T00:19:42.436Z,96752.88
2022-10-09T00:22:09.849Z,96746.44
2022-10-09T00:24:38.689Z,96741.69
2022-10-09T00:27:06.130Z,96736.31
2022-10-09T00:29:33.554Z,96731.50
2022-10-09T00:32:00.992Z,96735.53
2022-10-09T00:34:28.421Z,96709.06
2022-10-09T00:36:55.876Z,96736.91
2022-10-09T00:39:23.328Z,96744.31
2022-10-09T00:41:52.068Z,96737.13
2022-10-09T00:44:49.209Z,96745.69
2022-10-09T00:47:21.067Z,96741.50
2022-10-09T00:49:50.599Z,96724.06
2022-10-09T00:52:18.420Z,96725.94
2022-10-09T00:54:45.991Z,96733.75
2022-10-09T00:57:15.053Z,96731.09
2022-10-09T00:59:42.508Z,96732.25
2022-10-09T01:02:09.988Z,96737.91
2022-10-09T01:04:37.435Z,96735.25
2022-10-09T01:07:19.229Z,96736.50
2022-10-09T01:09:56.500Z,96731.81
2022-10-09T01:12:34.768Z,96739.97
2022-10-09T01:15:10.328Z,96728.78
2022-10-09T01:17:44.863Z,96733.88
2022-10-09T01:20:27.017Z,96711.91
2022-10-09T01:23:12.039Z,96731.59
2022-10-09T01:25:51.524Z,96721.78
2022-10-09T01:28:23.930Z,96716.84
2022-10-09T01:30:51.767Z,96705.81
2022-10-09T01:33:19.440Z,96716.34
2022-10-09T01:35:48.058Z,96701.94
2022-10-09T01:38:17.568Z,96693.44
2022-10-09T01:40:45.054Z,96712.47
2022-10-09T01:43:12.736Z,96711.22
2022-10-09T01:45:44.550Z,96691.94
2022-10-09T01:48:17.451Z,96700.66
2022-10-09T01:50:47.252Z,96689.81
2022-10-09T01:53:19.408Z,96692.19
2022-10-09T01:55:51.829Z,96697.59
2022-10-09T01:58:22.877Z,96697.31
2022-10-09T02:00:57.815Z,96692.53
2022-10-09T02:06:15.746Z,96695.44
2022-10-09T02:08:47.241Z,96652.09
2022-10-09T02:11:15.663Z,96689.88
2022-10-09T02:13:44.422Z,96700.81
2022-10-09T02:16:18.805Z,96689.34
2022-10-09T02:18:49.343Z,96684.03
2022-10-09T02:21:23.165Z,96678.88
2022-10-09T02:23:51.934Z,96676.25
2022-10-09T02:26:20.205Z,96668.22
2022-10-09T02:28:47.841Z,96672.28
2022-10-09T02:31:23.862Z,96684.88
2022-10-09T02:33:56.214Z,96683.78
2022-10-09T02:36:23.645Z,96662.78
2022-10-09T02:38:51.091Z,96694.84
2022-10-09T02:41:18.549Z,96689.91
2022-10-09T02:43:46.046Z,96691.97
2022-10-09T02:46:13.618Z,96685.41
2022-10-09T02:48:42.465Z,96688.06
2022-10-09T02:51:10.027Z,96688.25
2022-10-09T02:53:37.522Z,96685.06
2022-10-09T02:56:05.161Z,96687.81
2022-10-09T02:58:33.289Z,96672.72
2022-10-09T03:01:00.983Z,96680.38
2022-10-09T03:03:28.478Z,96665.22
2022-10-09T03:06:02.442Z,96685.00
2022-10-09T03:08:29.973Z,96676.34
2022-10-09T03:10:57.445Z,96665.06
2022-10-09T03:13:25.085Z,96671.28
2022-10-09T03:15:52.553Z,96677.09
2022-10-09T03:18:20.518Z,96677.28
2022-10-09T03:20:48.288Z,96673.06
2022-10-09T03:23:17.094Z,96673.31
2022-10-09T03:25:44.528Z,96666.41
2022-10-09T03:28:11.979Z,96675.28
2022-10-09T03:30:41.640Z,96673.38
2022-10-09T03:33:09.065Z,96672.19
2022-10-09T03:35:36.496Z,96670.72
2022-10-09T03:38:03.946Z,96671.72
2022-10-09T03:40:32.755Z,96669.03
2022-10-09T03:43:00.203Z,96664.91
2022-10-09T03:45:27.635Z,96671.94
2022-10-09T03:47:55.042Z,96668.03
2022-10-09T03:50:22.539Z,96667.22
2022-10-09T03:52:50.309Z,96664.69
2022-10-09T03:55:18.309Z,96667.56
2022-10-09T03:57:47.092Z,96664.69
2022-10-09T04:00:15.554Z,96651.28
2022-10-09T04:02:43.033Z,96657.81
2022-10-09T04:05:10.502Z,96651.88
2022-10-09T04:07:37.922Z,96659.88
2022-10-09T04:10:06.321Z,96651.84
2022-10-09T04:12:34.130Z,96648.22
2022-10-09T04:15:03.238Z,96653.06
2022-10-09T04:17:30.835Z,96652.25
2022-10-09T04:19:58.240Z,96643.91
2022-10-09T04:22:25.702Z,96652.53
2022-10-09T04:24:53.136Z,96654.44
2022-10-09T04:27:20.802Z,96643.09
2022-10-09T04:29:48.196Z,96647.88
2022-10-09T04:32:16.924Z,96638.41
2022-10-09T04:34:44.366Z,96642.09
2022-10-09T04:37:11.773Z,96646.59
2022-10-09T04:39:39.190Z,96644.31
2022-10-09T04:42:07.095Z,96647.34
2022-10-09T04:44:34.525Z,96643.88
2022-10-09T04:47:01.921Z,96645.47
2022-10-09T04:49:30.690Z,96624.09
2022-10-09T04:51:58.111Z,96626.09
2022-10-09T04:54:25.733Z,96634.28
2022-10-09T04:56:53.159Z,96633.94
2022-10-09T04:59:20.608Z,96596.91
2022-10-09T05:01:48.138Z,96631.28
2022-10-09T05:04:15.624Z,96637.03
2022-10-09T05:06:44.429Z,96624.50
2022-10-09T05:09:11.879Z,96628.38
2022-10-09T05:11:42.492Z,96622.47
2022-10-09T05:14:10.513Z,96616.81
2022-10-09T05:16:55.266Z,96621.94
2022-10-09T05:19:25.708Z,96613.78
2022-10-09T05:21:54.449Z,96613.78
2022-10-09T05:24:22.029Z,96601.13
2022-10-09T05:26:49.453Z,96613.28
2022-10-09T05:29:16.872Z,96611.06
2022-10-09T05:31:49.092Z,96598.38
2022-10-09T05:34:16.942Z,96608.50
2022-10-09T05:36:44.372Z,96585.06
2022-10-09T05:39:13.211Z,96611.84
2022-10-09T05:41:40.681Z,96612.03
2022-10-09T05:44:08.805Z,96599.88
2022-10-09T05:46:36.247Z,96613.09
2022-10-09T05:49:08.372Z,96619.19
2022-10-09T05:51:38.027Z,96616.75
2022-10-09T05:54:07.087Z,96619.91
2022-10-09T05:56:37.498Z,96612.13
2022-10-09T05:59:07.007Z,96623.16
2022-10-09T06:01:36.794Z,96600.16
2022-10-09T06:04:09.750Z,96618.34
2022-10-09T06:06:38.835Z,96605.88
2022-10-09T06:09:07.650Z,96611.97
2022-10-09T06:11:38.175Z,96610.75
2022-10-09T06:14:07.546Z,96606.28
2022-10-09T06:16:37.287Z,96609.31
2022-10-09T06:19:06.338Z,96607.47
2022-10-09T06:21:34.787Z,96575.06
2022-10-09T06:24:03.791Z,96604.31
2022-10-09T06:26:31.734Z,96562.28
2022-10-09T06:29:02.795Z,96590.28
2022-10-09T06:31:32.271Z,96604.91
2022-10-09T06:34:00.705Z,96602.34
2022-10-09T06:36:30.327Z,96604.44
2022-10-09T06:39:00.103Z,96610.75
2022-10-09T06:41:29.287Z,96608.75
2022-10-09T06:43:58.723Z,96609.53
2022-10-09T06:46:29.611Z,96610.06
2022-10-09T06:48:57.224Z,96614.06
2022-10-09T06:51:25.218Z,96600.59
2022-10-09T06:53:54.175Z,96608.03
2022-10-09T06:56:23.516Z,96593.16
2022-10-09T06:58:51.152Z,96626.63
2022-10-09T07:01:20.531Z,96601.13
2022-10-09T07:03:54.272Z,96608.53
2022-10-09T07:06:23.167Z,96608.00
2022-10-09T07:08:52.527Z,96607.41
2022-10-09T07:11:21.463Z,96594.72
2022-10-09T07:13:50.781Z,96608.06
2022-10-09T07:16:21.663Z,96608.50
2022-10-09T07:18:50.851Z,96600.13
2022-10-09T07:21:18.701Z,96594.50
2022-10-09T07:23:46.496Z,96603.44
2022-10-09T07:26:17.663Z,96609.34
2022-10-09T07:28:46.499Z,96608.28
2022-10-09T07:31:14.632Z,96600.56
2022-10-09T07:33:42.593Z,96602.25
2022-10-09T07:36:11.907Z,96611.13
2022-10-09T07:38:39.292Z,96603.91
2022-10-09T07:41:09.035Z,96602.16
2022-10-09T07:43:37.499Z,96597.59
2022-10-09T07:46:06.502Z,96610.69
2022-10-09T07:48:35.074Z,96611.34
2022-10-09T07:51:09.243Z,96597.09
2022-10-09T07:53:39.067Z,96609.72
2022-10-09T07:56:07.532Z,96598.84
2022-10-09T07:58:35.093Z,96599.63
2022-10-09T08:01:06.892Z,96601.28
2022-10-09T08:03:34.723Z,96586.84
2022-10-09T08:06:02.410Z,96589.84
2022-10-09T08:08:29.884Z,96592.69
2022-10-09T08:10:58.730Z,96593.50
2022-10-09T08:13:26.244Z,96600.78
2022-10-09T08:15:53.724Z,96595.97
2022-10-09T08:18:21.207Z,96584.94
2022-10-09T08:20:57.575Z,96595.47
2022-10-09T08:23:25.044Z,96581.56
2022-10-09T08:25:52.496Z,96586.53
2022-10-09T08:28:21.757Z,96576.09
2022-10-09T08:30:49.382Z,96581.53
2022-10-09T08:33:20.164Z,96580.16
2022-10-09T08:35:47.739Z,96564.53
2022-10-09T08:38:37.498Z,96581.50
2022-10-09T08:41:07.297Z,96583.75
2022-10-09T08:43:41.311Z,96578.38
2022-10-09T08:46:20.605Z,96566.13
2022-10-09T08:48:51.441Z,96576.66
2022-10-09T08:51:24.132Z,96565.47
2022-10-09T08:53:57.174Z,96564.19
2022-10-09T08:56:27.343Z,96570.44
2022-10-09T08:58:56.663Z,96569.50
2022-10-09T09:01:33.840Z,96561.84
2022-10-09T09:04:25.856Z,96562.03
2022-10-09T09:07:01.389Z,96563.19
2022-10-09T09:09:41.197Z,96554.03
2022-10-09T09:12:15.608Z,96554.78
2022-10-09T09:14:58.700Z,96557.47
2022-10-09T09:17:35.725Z,96554.97
2022-10-09T09:20:16.129Z,96557.19
2022-10-09T09:22:48.223Z,96548.88
2022-10-09T09:25:21.009Z,96549.72
2022-10-09T09:27:48.640Z,96539.63
2022-10-09T09:30:22.448Z,96546.50
2022-10-09T09:32:56.575Z,96538.13
2022-10-09T09:35:33.247Z,96545.38
2022-10-09T09:38:00.891Z,96530.53
2022-10-09T09:40:38.152Z,96538.75
2022-10-09T09:43:15.674Z,96533.59
2022-10-09T09:45:45.512Z,96519.97
2022-10-09T09:48:16.884Z,96520.69
2022-10-09T09:50:53.040Z,96515.63
2022-10-09T09:53:29.907Z,96515.44
2022-10-09T09:55:58.044Z,96519.78
2022-10-09T09:58:33.847Z,96503.22
2022-10-09T10:01:06.231Z,96502.06
2022-10-09T10:03:34.696Z,96490.28
2022-10-09T10:06:02.255Z,96489.66
2022-10-09T10:08:31.039Z,96501.75
2022-10-09T10:11:00.796Z,96495.38
2022-10-09T10:13:34.896Z,96492.72
2022-10-09T10:16:04.352Z,96495.13
2022-10-09T10:18:39.117Z,96486.25
2022-10-09T10:21:11.215Z,96490.41
2022-10-09T10:23:41.653Z,96480.38
2022-10-09T10:26:18.415Z,96483.22
2022-10-09T10:28:50.419Z,96477.31
2022-10-09T10:31:36.419Z,96484.00
2022-10-09T10:34:05.978Z,96482.34
2022-10-09T10:36:34.821Z,96458.09
2022-10-09T10:39:09.307Z,96470.47
2022-10-09T10:41:45.355Z,96445.03
2022-10-09T10:44:22.788Z,96455.25
2022-10-09T10:46:55.821Z,96460.44
2022-10-09T10:49:24.098Z,96441.38
2022-10-09T10:52:06.668Z,96440.97
2022-10-09T10:54:39.822Z,96448.66
2022-10-09T10:57:16.204Z,96425.06
2022-10-09T10:59:57.799Z,96434.53
2022-10-09T11:02:53.714Z,96442.94
2022-10-09T11:05:28.607Z,96444.75
2022-10-09T11:08:11.876Z,96434.03
2022-10-09T11:10:49.438Z,96439.28
2022-10-09T11:13:23.842Z,96436.47
2022-10-09T11:16:00.752Z,96428.31
2022-10-09T11:18:45.737Z,96420.47
2022-10-09T11:21:26.888Z,96418.03
2022-10-09T11:24:13.793Z,96415.41
2022-10-09T11:26:48.490Z,96421.28
2022-10-09T11:29:20.862Z,96397.69
2022-10-09T11:31:53.622Z,96403.97
2022-10-09T11:34:27.573Z,96405.06
2022-10-09T11:36:56.597Z,96400.06
2022-10-09T11:39:28.575Z,96398.19
2022-10-09T11:41:56.697Z,96384.03
2022-10-09T11:44:36.865Z,96387.50
2022-10-09T11:47:13.070Z,96380.38
2022-10-09T11:49:57.535Z,96391.16
2022-10-09T11:52:36.334Z,96385.69
2022-10-09T11:55:18.541Z,96378.34
2022-10-09T11:57:46.079Z,96373.16
2022-10-09T12:00:14.187Z,96369.22
2022-10-09T12:02:43.818Z,96372.13
2022-10-09T12:05:35.762Z,96360.88
2022-10-09T12:08:15.365Z,96354.31
2022-10-09T12:10:52.152Z,96351.94
2022-10-09T12:13:41.947Z,96351.41
2022-10-09T12:16:12.020Z,96335.06
2022-10-09T12:18:44.439Z,96349.50
2022-10-09T12:21:25.552Z,96338.22
2022-10-09T12:23:54.032Z,96334.56
2022-10-09T12:26:24.625Z,96330.09
2022-10-09T12:28:54.640Z,96330.94
2022-10-09T12:31:25.583Z,96322.03
2022-10-09T12:33:57.637Z,96316.25
2022-10-09T12:36:28.414Z,96344.53
2022-10-09T12:38:56.336Z,96322.50
2022-10-09T12:41:28.003Z,96323.28
2022-10-09T12:43:57.233Z,96299.94
2022-10-09T12:46:31.323Z,96309.09
2022-10-09T12:49:00.848Z,96294.75
2022-10-09T12:51:31.878Z,96299.19
2022-10-09T12:53:59.470Z,96297.09
2022-10-09T12:56:33.682Z,96278.72
2022-10-09T12:59:02.680Z,96286.59
2022-10-09T13:01:30.995Z,96270.84
2022-10-09T13:04:00.415Z,96273.22
2022-10-09T13:06:34.216Z,96285.28
2022-10-09T13:09:05.158Z,96264.53
2022-10-09T13:11:35.347Z,96270.81
2022-10-09T13:14:03.131Z,96274.78
2022-10-09T13:16:41.385Z,96265.59
2022-10-09T13:19:22.511Z,96260.59
2022-10-09T13:22:18.914Z,96257.16
2022-10-09T13:24:46.734Z,96262.44
2022-10-09T13:27:15.433Z,96257.97
2022-10-09T13:29:43.497Z,96244.25
2022-10-09T13:32:13.411Z,96243.50
2022-10-09T13:34:41.251Z,96239.31
2022-10-09T13:37:11.501Z,96231.13
2022-10-09T13:39:38.959Z,96227.66
2022-10-09T13:42:07.082Z,96228.66
2022-10-09T13:44:34.501Z,96227.84
2022-10-09T13:47:02.440Z,96214.03
2022-10-09T13:49:29.897Z,96226.38
2022-10-09T13:51:57.303Z,96210.94
2022-10-09T13:54:26.625Z,96219.56
2022-10-09T13:56:54.465Z,96217.41
2022-10-09T13:59:21.955Z,96215.50
2022-10-09T14:01:49.441Z,96203.56
2022-10-09T14:04:17.105Z,96195.69
2022-10-09T14:06:44.527Z,96197.88
2022-10-09T14:09:11.924Z,96199.69
2022-10-09T14:11:40.723Z,96199.28
2022-10-09T14:14:08.184Z,96186.00
2022-10-09T14:16:36.640Z,96173.19
2022-10-09T14:19:05.383Z,96171.72
2022-10-09T14:21:33.897Z,96170.75
2022-10-09T14:24:03.264Z,96169.50
2022-10-09T14:26:31.000Z,96169.50
2022-10-09T14:29:01.737Z,96164.84
2022-10-09T14:31:29.917Z,96160.41
2022-10-09T14:33:59.622Z,96158.09
2022-10-09T14:36:27.873Z,96138.97
2022-10-09T14:38:55.588Z,96146.94
2022-10-09T14:41:23.412Z,96135.97
2022-10-09T14:43:56.639Z,96150.63
2022-10-09T14:46:27.000Z,96138.34
2022-10-09T14:48:56.266Z,96140.16
2022-10-09T14:51:25.770Z,96133.72
2022-10-09T14:53:56.835Z,96134.44
2022-10-09T14:56:24.465Z,96127.25
2022-10-09T14:58:51.898Z,96124.47
2022-10-09T15:01:21.047Z,96132.06
2022-10-09T15:03:49.988Z,96117.38
2022-10-09T15:06:23.608Z,96121.84
2022-10-09T15:08:52.350Z,96121.72
2022-10-09T15:11:19.796Z,96121.06
2022-10-09T15:13:47.232Z,96109.69
2022-10-09T15:16:15.903Z,96114.47
2022-10-09T15:18:44.231Z,96104.91
2022-10-09T15:21:15.638Z,96107.47
2022-10-09T15:23:43.709Z,96095.84
2022-10-09T15:26:11.859Z,96097.31
2022-10-09T15:28:40.679Z,96095.84
2022-10-09T15:31:17.284Z,96088.00
2022-10-09T15:33:44.685Z,96085.44
2022-10-09T15:36:12.079Z,96089.44
2022-10-09T15:38:41.089Z,96082.81
2022-10-09T15:41:08.512Z,96085.25
2022-10-09T15:43:38.972Z,96081.16
2022-10-09T15:46:08.552Z,96080.25
2022-10-09T15:48:36.019Z,96068.06
2022-10-09T15:51:06.828Z,96090.25
2022-10-09T15:53:34.278Z,96077.44
2022-10-09T15:56:06.466Z,96074.28
2022-10-09T15:58:34.006Z,96072.88
2022-10-09T16:01:04.430Z,96065.41
2022-10-09T16:03:36.441Z,96069.16
2022-10-09T16:06:07.210Z,96066.72
2022-10-09T16:08:34.901Z,96061.44
2022-10-09T16:11:10.140Z,96060.69
2022-10-09T16:13:39.728Z,96054.59
2022-10-09T16:16:09.394Z,96063.81
2022-10-09T16:18:37.388Z,96056.31
2022-10-09T16:21:06.332Z,96048.84
2022-10-09T16:23:33.943Z,96058.53
2022-10-09T16:26:04.156Z,96057.13
2022-10-09T16:28:33.560Z,96053.34
2022-10-09T16:31:01.148Z,96052.53
2022-10-09T16:33:28.959Z,96044.53
2022-10-09T16:36:07.416Z,96045.91
2022-10-09T16:38:34.865Z,96045.66
2022-10-09T16:41:02.785Z,96049.13
2022-10-09T16:43:34.857Z,96046.50
2022-10-09T16:46:13.653Z,96016.59
2022-10-09T16:48:41.064Z,96053.78
2022-10-09T16:51:10.006Z,96046.91
2022-10-09T16:53:37.491Z,96036.19
2022-10-09T16:56:13.973Z,96052.06
2022-10-09T16:58:43.574Z,96047.31
2022-10-09T17:01:12.315Z,96050.41
2022-10-09T17:03:41.166Z,96047.22
2022-10-09T17:06:09.956Z,96012.06
2022-10-09T17:08:37.396Z,96044.28
2022-10-09T17:11:08.339Z,96046.31
2022-10-09T17:13:36.141Z,96053.38
2022-10-09T17:16:07.283Z,96044.91
2022-10-09T17:18:35.839Z,96054.78
2022-10-09T17:21:04.033Z,96047.94
2022-10-09T17:23:31.482Z,96043.47
2022-10-09T17:25:59.022Z,96035.31
2022-10-09T17:28:26.547Z,96028.97
2022-10-09T17:30:54.035Z,96037.31
2022-10-09T17:33:22.807Z,96044.03
2022-10-09T17:35:50.331Z,96043.72
2022-10-09T17:38:17.784Z,96039.72
2022-10-09T17:40:45.204Z,96038.41
2022-10-09T17:43:12.652Z,96052.44
2022-10-09T17:45:40.920Z,96047.91
2022-10-09T17:48:09.771Z,96044.94
2022-10-09T17:50:38.526Z,96031.63
2022-10-09T17:53:06.221Z,96027.59
2022-10-09T17:55:38.701Z,96038.69
2022-10-09T17:58:06.160Z,96035.53
2022-10-09T18:00:33.600Z,96026.69
2022-10-09T18:03:01.008Z,96027.13
2022-10-09T18:05:28.429Z,96018.03
2022-10-09T18:07:57.200Z,96015.91
2022-10-09T18:10:25.096Z,96019.63
2022-10-09T18:12:52.526Z,96016.16
2022-10-09T18:15:19.931Z,96001.44
2022-10-09T18:17:47.625Z,96003.06
2022-10-09T18:20:15.504Z,96002.28
2022-10-09T18:22:42.969Z,95996.53
2022-10-09T18:25:11.849Z,96005.59
2022-10-09T18:27:39.313Z,96012.16
2022-10-09T18:30:07.670Z,96005.63
2022-10-09T18:32:35.112Z,95985.63
2022-10-09T18:35:03.058Z,95992.00
2022-10-09T18:37:30.526Z,95998.78
2022-10-09T18:39:57.996Z,95990.28
2022-10-09T18:42:26.899Z,95985.63
2022-10-09T18:44:54.314Z,95996.44
2022-10-09T18:47:28.197Z,95983.53
2022-10-09T18:49:59.650Z,95992.78
2022-10-09T18:52:27.242Z,95979.53
2022-10-09T18:54:56.000Z,95985.44
2022-10-09T18:57:25.796Z,95979.53
2022-10-09T18:59:56.454Z,95983.25
2022-10-09T19:02:26.438Z,95962.84
2022-10-09T19:04:53.972Z,95968.59
2022-10-09T19:07:21.477Z,95957.88
2022-10-09T19:09:53.592Z,95972.06
2022-10-09T19:12:23.885Z,95972.53
2022-10-09T19:14:51.313Z,95964.59
2022-10-09T19:17:20.532Z,95959.34
2022-10-09T19:19:48.092Z,95964.84
2022-10-09T19:22:19.028Z,95966.72
2022-10-09T19:24:48.923Z,95955.47
2022-10-09T19:27:16.328Z,95949.84
2022-10-09T19:29:43.760Z,95949.78
2022-10-09T19:32:11.467Z,95962.94
2022-10-09T19:34:40.234Z,95959.22
2022-10-09T19:37:07.648Z,95955.28
2022-10-09T19:39:35.077Z,95953.84
2022-10-09T19:42:02.535Z,95950.47
2022-10-09T19:44:29.968Z,95954.75
2022-10-09T19:46:57.497Z,95941.97
2022-10-09T19:49:24.909Z,95953.00
2022-10-09T19:51:53.664Z,95959.56
2022-10-09T19:54:21.072Z,95946.22
2022-10-09T19:56:48.533Z,95953.25
2022-10-09T19:59:15.989Z,95953.94
2022-10-09T20:01:43.402Z,95945.69
2022-10-09T20:04:11.948Z,95941.41
2022-10-09T20:06:40.785Z,95930.38
2022-10-09T20:09:11.274Z,95948.34
2022-10-09T20:11:39.215Z,95936.13
2022-10-09T20:14:06.838Z,95945.50
2022-10-09T20:16:34.558Z,95931.78
2022-10-09T20:19:02.934Z,95939.41
2022-10-09T20:21:32.008Z,95943.03
2022-10-09T20:24:01.053Z,95942.28
2022-10-09T20:26:31.347Z,95941.03
2022-10-09T20:28:58.768Z,95945.47
2022-10-09T20:31:27.657Z,95938.03
2022-10-09T20:33:56.182Z,95940.38
2022-10-09T20:36:27.149Z,95942.88
2022-10-09T20:38:58.368Z,95936.69
2022-10-09T20:41:27.527Z,95941.66
2022-10-09T20:43:57.552Z,95933.53
2022-10-09T20:46:27.858Z,95935.34
2022-10-09T20:48:55.654Z,95926.56
2022-10-09T20:51:23.551Z,95929.97
2022-10-09T20:53:53.109Z,95932.81
2022-10-09T20:56:20.534Z,95933.47
2022-10-09T20:58:47.936Z,95943.66
2022-10-09T21:01:17.104Z,95938.25
2022-10-09T21:03:45.294Z,95937.34
2022-10-09T21:06:15.158Z,95932.81
2022-10-09T21:08:43.245Z,95913.78
2022-10-09T21:11:16.213Z,95934.28
2022-10-09T21:13:44.329Z,95929.00
2022-10-09T21:16:13.560Z,95928.78
2022-10-09T21:18:42.636Z,95923.59
2022-10-09T21:21:11.778Z,95928.00
2022-10-09T21:23:39.270Z,95930.34
2022-10-09T21:26:12.631Z,95920.34
2022-10-09T21:28:40.111Z,95918.78
2022-10-09T21:31:12.136Z,95919.13
2022-10-09T21:33:39.550Z,95914.69
2022-10-09T21:36:13.816Z,95927.22
2022-10-09T21:38:41.249Z,95907.25
2022-10-09T21:41:08.675Z,95910.53
2022-10-09T21:43:36.096Z,95920.00
2022-10-09T21:46:03.524Z,95906.69
2022-10-09T21:48:31.070Z,95914.13
2022-10-09T21:50:58.467Z,95911.22
2022-10-09T21:53:27.328Z,95915.53
2022-10-09T21:55:54.748Z,95915.63
2022-10-09T21:58:22.212Z,95913.47
2022-10-09T22:00:56.112Z,95904.34
2022-10-09T22:03:25.294Z,95896.69
2022-10-09T22:05:52.924Z,95898.59
2022-10-09T22:08:20.517Z,95901.53
2022-10-09T22:10:49.938Z,95914.81
2022-10-09T22:13:17.967Z,95906.13
2022-10-09T22:15:50.780Z,95912.38
2022-10-09T22:18:18.708Z,95904.34
2022-10-09T22:20:47.836Z,95894.19
2022-10-09T22:23:16.524Z,95901.75
2022-10-09T22:25:43.976Z,95904.13
2022-10-09T22:28:12.795Z,95899.25
2022-10-09T22:30:40.195Z,95894.97
2022-10-09T22:33:07.600Z,95889.09
2022-10-09T22:35:35.065Z,95897.13
2022-10-09T22:38:02.480Z,95887.88
2022-10-09T22:40:29.901Z,95883.94
2022-10-09T22:42:57.357Z,95872.00
2022-10-09T22:45:26.099Z,95883.69
2022-10-09T22:47:53.508Z,95881.56
2022-10-09T22:50:20.950Z,95874.34
2022-10-09T22:52:48.645Z,95866.81
2022-10-09T22:55:16.285Z,95859.25
2022-10-09T22:57:43.693Z,95861.53
2022-10-09T23:00:12.678Z,95864.56
2022-10-09T23:02:41.435Z,95856.78
2022-10-09T23:05:09.504Z,95859.06
2022-10-09T23:07:36.904Z,95865.56
2022-10-09T23:10:04.955Z,95852.63
2022-10-09T23:12:32.369Z,95865.00
2022-10-09T23:14:59.796Z,95860.41
2022-10-09T23:17:27.203Z,95854.53
2022-10-09T23:19:55.956Z,95864.22
2022-10-09T23:22:23.362Z,95862.31
2022-10-09T23:24:50.791Z,95848.44
2022-10-09T23:27:18.201Z,95848.00
2022-10-09T23:29:45.617Z,95839.22
2022-10-09T23:32:13.308Z,95842.59
2022-10-09T23:34:40.752Z,95820.06
2022-10-09T23:37:09.577Z,95839.56
2022-10-09T23:39:37.032Z,95848.56
2022-10-09T23:42:04.676Z,95840.56
2022-10-09T23:44:32.079Z,95819.72
2022-10-09T23:46:59.518Z,95830.28
2022-10-09T23:49:26.953Z,95842.13
2022-10-09T23:51:54.373Z,95836.19
2022-10-09T23:54:23.140Z,95835.94
2022-10-09T23:56:50.569Z,95840.97
2022-10-09T23:59:17.979Z,95838.06
